createdAt,value
2018-04-26T00:02:14.957Z,100868.42
2018-04-26T00:04:42.352Z,100861.86
2018-04-26T00:07:09.770Z,100857.42
2018-04-26T00:09:37.172Z,100856.94
2018-04-26T00:12:04.586Z,100864.55
2018-04-26T00:14:32.016Z,100864.05
2018-04-26T00:16:59.433Z,100863.56
2018-04-26T00:19:26.851Z,100858.05
2018-04-26T00:21:54.267Z,100860.80
2018-04-26T00:24:21.664Z,100856.36
2018-04-26T00:26:49.088Z,100854.08
2018-04-26T00:29:16.493Z,100849.69
2018-04-26T00:31:43.908Z,100847.82
2018-04-26T00:34:11.333Z,100848.23
2018-04-26T00:36:38.735Z,100844.42
2018-04-26T00:39:06.149Z,100840.06
2018-04-26T00:41:33.568Z,100838.42
2018-04-26T00:44:01.022Z,100844.50
2018-04-26T00:46:28.436Z,100841.25
2018-04-26T00:48:55.843Z,100841.66
2018-04-26T00:51:34.993Z,100841.65
2018-04-26T00:54:02.406Z,100833.71
2018-04-26T00:56:29.921Z,100832.89
2018-04-26T00:58:57.328Z,100834.61
2018-04-26T01:01:24.744Z,100826.67
2018-04-26T01:03:52.149Z,100829.02
2018-04-26T01:06:19.581Z,100835.84
2018-04-26T01:08:46.982Z,100830.81
2018-04-26T01:11:14.393Z,100831.12
2018-04-26T01:13:41.818Z,100841.51
2018-04-26T01:16:09.264Z,100845.23
2018-04-26T01:18:36.686Z,100836.63
2018-04-26T01:21:04.088Z,100850.34
2018-04-26T01:23:31.520Z,100857.80
2018-04-26T01:25:58.933Z,100861.28
2018-04-26T01:28:26.336Z,100861.77
2018-04-26T01:30:53.779Z,100853.00
2018-04-26T01:33:21.177Z,100851.38
2018-04-26T01:35:48.609Z,100845.11
2018-04-26T01:38:16.051Z,100839.38
2018-04-26T01:40:43.461Z,100835.57
2018-04-26T01:43:10.877Z,100842.13
2018-04-26T01:45:38.288Z,100839.53
2018-04-26T01:48:05.703Z,100827.55
2018-04-26T01:50:33.125Z,100828.92
2018-04-26T01:53:00.544Z,100818.30
2018-04-26T01:55:28.034Z,100816.92
2018-04-26T01:57:55.451Z,100822.03
2018-04-26T02:00:22.848Z,100806.39
2018-04-26T02:02:50.296Z,100803.72
2018-04-26T02:05:17.709Z,100807.13
2018-04-26T02:07:45.113Z,100802.73
2018-04-26T02:10:12.514Z,100796.44
2018-04-26T02:12:39.930Z,100787.16
2018-04-26T02:15:07.333Z,100781.42
2018-04-26T02:17:34.747Z,100780.60
2018-04-26T02:20:02.148Z,100777.99
2018-04-26T02:22:29.565Z,100776.39
2018-04-26T02:24:56.968Z,100777.28
2018-04-26T02:27:24.380Z,100777.52
2018-04-26T02:29:51.787Z,100775.02
2018-04-26T02:32:19.204Z,100788.28
2018-04-26T02:34:46.608Z,100785.86
2018-04-26T02:37:14.026Z,100787.16
2018-04-26T02:39:41.420Z,100785.63
2018-04-26T02:42:08.836Z,100784.22
2018-04-26T02:44:36.236Z,100776.69
2018-04-26T02:47:03.653Z,100773.26
2018-04-26T02:49:31.131Z,100772.13
2018-04-26T02:51:58.563Z,100769.30
2018-04-26T02:54:25.964Z,100769.45
2018-04-26T02:56:53.393Z,100778.70
2018-04-26T02:59:20.797Z,100768.89
2018-04-26T03:01:48.216Z,100778.05
2018-04-26T03:04:15.631Z,100769.52
2018-04-26T03:06:43.072Z,100777.90
2018-04-26T03:09:10.480Z,100778.23
2018-04-26T03:11:37.891Z,100777.41
2018-04-26T03:14:05.313Z,100779.27
2018-04-26T03:16:32.716Z,100774.72
2018-04-26T03:19:00.137Z,100776.09
2018-04-26T03:21:27.545Z,100776.91
2018-04-26T03:23:54.966Z,100778.10
2018-04-26T03:26:22.373Z,100778.84
2018-04-26T03:28:49.789Z,100780.45
2018-04-26T03:31:17.263Z,100778.11
2018-04-26T03:33:44.618Z,100777.73
2018-04-26T03:36:12.069Z,100772.28
2018-04-26T03:38:39.494Z,100776.66
2018-04-26T03:41:06.901Z,100778.71
2018-04-26T03:43:34.333Z,100783.41
2018-04-26T03:46:01.757Z,100782.30
2018-04-26T03:48:29.245Z,100785.20
2018-04-26T03:50:56.650Z,100787.97
2018-04-26T03:53:24.065Z,100788.78
2018-04-26T03:55:51.476Z,100786.80
2018-04-26T03:58:18.969Z,100791.61
2018-04-26T04:00:58.134Z,100790.16
2018-04-26T04:03:37.325Z,100791.12
2018-04-26T04:06:14.593Z,100794.70
2018-04-26T04:08:42.075Z,100792.59
2018-04-26T04:11:09.483Z,100794.59
2018-04-26T04:13:36.980Z,100791.27
2018-04-26T04:16:04.390Z,100789.47
2018-04-26T04:18:31.797Z,100792.87
2018-04-26T04:20:59.205Z,100795.14
2018-04-26T04:23:26.624Z,100797.11
2018-04-26T04:25:54.034Z,100796.84
2018-04-26T04:28:21.453Z,100794.64
2018-04-26T04:30:48.871Z,100788.41
2018-04-26T04:33:16.280Z,100802.58
2018-04-26T04:35:43.697Z,100791.39
2018-04-26T04:38:11.104Z,100797.23
2018-04-26T04:40:38.520Z,100801.45
2018-04-26T04:43:05.938Z,100802.58
2018-04-26T04:45:33.357Z,100807.75
2018-04-26T04:48:00.816Z,100811.41
2018-04-26T04:50:28.225Z,100810.20
2018-04-26T04:52:55.661Z,100805.16
2018-04-26T04:55:23.077Z,100808.49
2018-04-26T04:57:50.509Z,100809.14
2018-04-26T05:00:17.916Z,100806.70
2018-04-26T05:02:45.320Z,100817.19
2018-04-26T05:05:12.732Z,100819.19
2018-04-26T05:07:40.141Z,100815.45
2018-04-26T05:10:07.564Z,100817.31
2018-04-26T05:12:34.973Z,100819.09
2018-04-26T05:15:02.398Z,100816.97
2018-04-26T05:17:29.821Z,100817.53
2018-04-26T05:19:57.232Z,100826.96
2018-04-26T05:22:24.633Z,100822.55
2018-04-26T05:24:52.061Z,100828.22
2018-04-26T05:27:19.478Z,100832.68
2018-04-26T05:29:46.905Z,100834.22
2018-04-26T05:32:14.326Z,100831.45
2018-04-26T05:34:41.740Z,100838.14
2018-04-26T05:37:09.159Z,100835.38
2018-04-26T05:39:36.585Z,100832.70
2018-04-26T05:42:03.997Z,100836.42
2018-04-26T05:44:31.421Z,100843.41
2018-04-26T05:46:58.849Z,100839.87
2018-04-26T05:49:26.274Z,100838.89
2018-04-26T05:51:53.690Z,100844.48
2018-04-26T05:54:21.119Z,100846.17
2018-04-26T05:56:48.528Z,100851.88
2018-04-26T05:59:15.953Z,100853.34
2018-04-26T06:01:43.362Z,100851.06
2018-04-26T06:04:10.774Z,100852.09
2018-04-26T06:06:38.180Z,100859.89
2018-04-26T06:09:05.605Z,100862.43
2018-04-26T06:11:33.013Z,100868.58
2018-04-26T06:14:00.441Z,100859.95
2018-04-26T06:16:27.861Z,100864.31
2018-04-26T06:18:55.281Z,100867.95
2018-04-26T06:21:22.693Z,100866.73
2018-04-26T06:23:50.120Z,100864.27
2018-04-26T06:26:17.570Z,100870.52
2018-04-26T06:28:45.001Z,100878.33
2018-04-26T06:31:12.566Z,100874.53
2018-04-26T06:33:39.845Z,100871.69
2018-04-26T06:36:07.305Z,100874.17
2018-04-26T06:38:34.725Z,100878.31
2018-04-26T06:41:02.148Z,100880.38
2018-04-26T06:43:29.572Z,100881.80
2018-04-26T06:45:56.993Z,100884.41
2018-04-26T06:48:24.425Z,100891.88
2018-04-26T06:50:51.852Z,100894.98
2018-04-26T06:53:19.260Z,100893.16
2018-04-26T06:55:46.687Z,100905.63
2018-04-26T06:58:14.102Z,100902.02
2018-04-26T07:00:41.525Z,100904.53
2018-04-26T07:03:08.942Z,100899.14
2018-04-26T07:05:36.368Z,100902.88
2018-04-26T07:08:03.791Z,100909.30
2018-04-26T07:10:31.212Z,100906.53
2018-04-26T07:12:58.624Z,100904.28
2018-04-26T07:15:26.064Z,100915.45
2018-04-26T07:17:53.480Z,100906.78
2018-04-26T07:20:20.922Z,100908.73
2018-04-26T07:22:48.334Z,100913.87
2018-04-26T07:25:15.773Z,100917.39
2018-04-26T07:27:43.191Z,100913.58
2018-04-26T07:30:10.604Z,100914.69
2018-04-26T07:32:38.035Z,100913.93
2018-04-26T07:35:05.534Z,100912.52
2018-04-26T07:37:32.949Z,100913.36
2018-04-26T07:40:00.398Z,100915.22
2018-04-26T07:42:27.808Z,100924.19
2018-04-26T07:44:55.217Z,100918.59
2018-04-26T07:47:22.641Z,100918.05
2018-04-26T07:49:50.048Z,100923.09
2018-04-26T07:52:17.472Z,100919.72
2018-04-26T07:54:44.920Z,100919.94
2018-04-26T07:57:12.341Z,100925.69
2018-04-26T07:59:39.770Z,100929.66
2018-04-26T08:02:07.189Z,100920.94
2018-04-26T08:04:34.605Z,100923.71
2018-04-26T08:07:02.038Z,100927.38
2018-04-26T08:09:29.536Z,100922.30
2018-04-26T08:11:56.961Z,100929.64
2018-04-26T08:14:24.391Z,100926.28
2018-04-26T08:16:51.803Z,100931.64
2018-04-26T08:19:19.259Z,100938.37
2018-04-26T08:21:46.684Z,100942.04
2018-04-26T08:24:14.104Z,100945.16
2018-04-26T08:26:41.521Z,100950.81
2018-04-26T08:29:08.948Z,100944.00
2018-04-26T08:31:36.364Z,100950.13
2018-04-26T08:34:03.785Z,100945.47
2018-04-26T08:36:31.202Z,100946.28
2018-04-26T08:38:58.638Z,100956.68
2018-04-26T08:41:26.051Z,100955.07
2018-04-26T08:43:53.472Z,100953.80
2018-04-26T08:46:20.909Z,100959.81
2018-04-26T08:48:48.323Z,100957.60
2018-04-26T08:51:15.732Z,100958.47
2018-04-26T08:53:43.147Z,100952.03
2018-04-26T08:56:10.552Z,100955.77
2018-04-26T08:58:37.971Z,100951.21
2018-04-26T09:01:05.386Z,100954.04
2018-04-26T09:03:32.795Z,100962.56
2018-04-26T09:06:00.277Z,100961.20
2018-04-26T09:08:27.665Z,100964.17
2018-04-26T09:10:55.078Z,100954.73
2018-04-26T09:13:22.492Z,100967.42
2018-04-26T09:15:49.971Z,100962.13
2018-04-26T09:18:17.322Z,100968.98
2018-04-26T09:20:44.747Z,100976.63
2018-04-26T09:23:12.148Z,100978.83
2018-04-26T09:25:39.590Z,100969.63
2018-04-26T09:28:07.000Z,100981.34
2018-04-26T09:30:34.426Z,100978.95
2018-04-26T09:33:01.839Z,100995.39
2018-04-26T09:35:29.254Z,101002.71
2018-04-26T09:37:56.658Z,101018.12
2018-04-26T09:40:24.077Z,101014.64
2018-04-26T09:42:51.492Z,101002.05
2018-04-26T09:45:18.914Z,101012.50
2018-04-26T09:47:46.331Z,101018.44
2018-04-26T09:50:13.755Z,101043.61
2018-04-26T09:52:41.246Z,101065.61
2018-04-26T09:55:08.702Z,101062.08
2018-04-26T09:57:36.109Z,101060.30
2018-04-26T10:00:03.513Z,101053.52
2018-04-26T10:02:30.926Z,101056.86
2018-04-26T10:04:58.335Z,101053.27
2018-04-26T10:07:25.748Z,101056.70
2018-04-26T10:09:53.232Z,101048.78
2018-04-26T10:12:20.680Z,101050.91
2018-04-26T10:14:48.094Z,101056.49
2018-04-26T10:17:15.512Z,101047.50
2018-04-26T10:19:42.920Z,101051.56
2018-04-26T10:22:10.341Z,101044.56
2018-04-26T10:24:37.756Z,101044.00
2018-04-26T10:27:05.172Z,101036.52
2018-04-26T10:29:32.580Z,101030.05
2018-04-26T10:32:00.002Z,101028.22
2018-04-26T10:34:27.472Z,101030.76
2018-04-26T10:36:54.888Z,101033.85
2018-04-26T10:39:22.294Z,101046.14
2018-04-26T10:41:49.716Z,101042.45
2018-04-26T10:44:17.195Z,101051.53
2018-04-26T10:46:44.596Z,101054.14
2018-04-26T10:49:12.009Z,101054.28
2018-04-26T10:51:39.449Z,101062.47
2018-04-26T10:54:06.852Z,101055.62
2018-04-26T10:56:34.370Z,101059.18
2018-04-26T10:59:01.778Z,101064.41
2018-04-26T11:01:29.274Z,101066.81
2018-04-26T11:03:56.690Z,101074.33
2018-04-26T11:06:24.101Z,101088.88
2018-04-26T11:08:51.504Z,101098.28
2018-04-26T11:11:18.934Z,101112.20
2018-04-26T11:13:46.341Z,101103.21
2018-04-26T11:16:13.767Z,101098.58
2018-04-26T11:18:41.174Z,101098.59
2018-04-26T11:21:08.582Z,101087.75
2018-04-26T11:23:35.992Z,101091.05
2018-04-26T11:26:03.401Z,101087.08
2018-04-26T11:28:30.816Z,101089.06
2018-04-26T11:30:58.306Z,101094.50
2018-04-26T11:33:25.644Z,101082.16
2018-04-26T11:35:53.045Z,101084.87
2018-04-26T11:38:20.479Z,101082.77
2018-04-26T11:40:47.880Z,101075.09
2018-04-26T11:43:15.312Z,101071.25
2018-04-26T11:45:42.731Z,101064.52
2018-04-26T11:48:10.149Z,101066.91
2018-04-26T11:50:37.553Z,101055.86
2018-04-26T11:53:05.022Z,101064.14
2018-04-26T11:55:32.429Z,101069.96
2018-04-26T11:57:59.839Z,101066.28
2018-04-26T12:00:27.268Z,101060.59
2018-04-26T12:02:54.741Z,101057.72
2018-04-26T12:05:22.147Z,101057.39
2018-04-26T12:07:49.725Z,101063.06
2018-04-26T12:10:17.033Z,101058.66
2018-04-26T12:12:44.456Z,101057.95
2018-04-26T12:15:11.867Z,101061.70
2018-04-26T12:17:39.284Z,101064.03
2018-04-26T12:20:06.701Z,101059.89
2018-04-26T12:22:34.132Z,101064.11
2018-04-26T12:25:01.648Z,101074.33
2018-04-26T12:27:29.064Z,101074.22
2018-04-26T12:29:56.485Z,101081.13
2018-04-26T12:32:23.900Z,101080.92
2018-04-26T12:34:51.310Z,101087.02
2018-04-26T12:37:18.733Z,101090.77
2018-04-26T12:39:46.150Z,101097.63
2018-04-26T12:42:13.590Z,101098.29
2018-04-26T12:44:40.973Z,101102.52
2018-04-26T12:47:08.428Z,101101.89
2018-04-26T12:49:35.897Z,101110.07
2018-04-26T12:52:03.343Z,101107.52
2018-04-26T12:54:30.743Z,101108.98
2018-04-26T12:56:58.166Z,101108.31
2018-04-26T12:59:25.574Z,101110.28
2018-04-26T13:01:52.984Z,101116.19
2018-04-26T13:04:20.413Z,101115.50
2018-04-26T13:06:47.828Z,101130.62
2018-04-26T13:09:15.246Z,101136.90
2018-04-26T13:11:42.677Z,101151.84
2018-04-26T13:14:10.093Z,101178.08
2018-04-26T13:16:37.530Z,101177.11
2018-04-26T13:19:04.961Z,101178.84
2018-04-26T13:21:32.377Z,101176.28
2018-04-26T13:24:00.090Z,101174.27
2018-04-26T13:26:27.528Z,101171.95
2018-04-26T13:28:55.450Z,101176.58
2018-04-26T13:31:22.852Z,101184.52
2018-04-26T13:33:50.336Z,101185.72
2018-04-26T13:36:17.822Z,101182.73
2018-04-26T13:38:45.181Z,101182.63
2018-04-26T13:41:12.578Z,101183.88
2018-04-26T13:43:39.993Z,101185.08
2018-04-26T13:46:07.396Z,101187.94
2018-04-26T13:48:34.824Z,101199.74
2018-04-26T13:51:02.224Z,101200.18
2018-04-26T13:53:29.636Z,101187.85
2018-04-26T13:55:57.048Z,101190.67
2018-04-26T13:58:24.461Z,101202.34
2018-04-26T14:00:51.884Z,101192.59
2018-04-26T14:03:19.316Z,101188.05
2018-04-26T14:05:46.808Z,101191.04
2018-04-26T14:08:14.224Z,101189.56
2018-04-26T14:10:41.640Z,101199.14
2018-04-26T14:13:09.069Z,101192.42
2018-04-26T14:15:36.471Z,101195.78
2018-04-26T14:18:03.952Z,101193.32
2018-04-26T14:20:31.356Z,101194.30
2018-04-26T14:22:58.792Z,101185.97
2018-04-26T14:25:26.240Z,101188.80
2018-04-26T14:27:53.697Z,101185.19
2018-04-26T14:30:21.256Z,101201.55
2018-04-26T14:32:48.657Z,101196.81
2018-04-26T14:35:16.074Z,101193.78
2018-04-26T14:37:43.477Z,101184.69
2018-04-26T14:40:10.897Z,101185.54
2018-04-26T14:42:38.327Z,101184.55
2018-04-26T14:45:05.778Z,101186.86
2018-04-26T14:47:33.253Z,101193.83
2018-04-26T14:50:00.692Z,101193.31
2018-04-26T14:52:28.096Z,101190.61
2018-04-26T14:54:55.513Z,101198.19
2018-04-26T14:57:22.933Z,101200.13
2018-04-26T14:59:50.349Z,101194.98
2018-04-26T15:02:17.755Z,101193.16
2018-04-26T15:04:45.172Z,101200.77
2018-04-26T15:07:12.652Z,101199.96
2018-04-26T15:09:40.065Z,101193.87
2018-04-26T15:12:07.502Z,101187.00
2018-04-26T15:14:34.916Z,101186.11
2018-04-26T15:17:02.332Z,101186.65
2018-04-26T15:19:29.733Z,101193.10
2018-04-26T15:21:57.206Z,101177.11
2018-04-26T15:24:24.612Z,101172.73
2018-04-26T15:26:52.029Z,101170.98
2018-04-26T15:29:19.473Z,101170.92
2018-04-26T15:31:46.898Z,101169.52
2018-04-26T15:34:14.393Z,101163.91
2018-04-26T15:36:41.844Z,101174.00
2018-04-26T15:39:09.304Z,101166.70
2018-04-26T15:41:36.724Z,101156.41
2018-04-26T15:44:04.128Z,101165.37
2018-04-26T15:46:31.544Z,101174.89
2018-04-26T15:48:58.952Z,101171.12
2018-04-26T15:51:26.557Z,101167.34
2018-04-26T15:54:05.613Z,101173.61
2018-04-26T15:56:54.280Z,101170.47
2018-04-26T15:59:33.452Z,101168.73
2018-04-26T16:05:36.920Z,101188.12
2018-04-26T16:08:21.845Z,101183.19
2018-04-26T16:11:06.890Z,101189.51
2018-04-26T16:13:51.981Z,101196.14
2018-04-26T16:16:37.144Z,101206.48
2018-04-26T16:19:28.195Z,101223.16
2018-04-26T16:22:13.198Z,101217.95
2018-04-26T16:24:54.180Z,101253.30
2018-04-26T16:27:39.056Z,101263.78
2018-04-26T16:30:18.125Z,101264.78
2018-04-26T16:33:02.934Z,101260.88
2018-04-26T16:35:42.211Z,101248.62
2018-04-26T16:38:22.416Z,101240.30
2018-04-26T16:40:49.832Z,101234.94
2018-04-26T16:43:17.269Z,101237.70
2018-04-26T16:45:44.686Z,101235.95
2018-04-26T16:48:12.101Z,101231.80
2018-04-26T16:50:39.508Z,101240.11
2018-04-26T16:53:06.919Z,101239.93
2018-04-26T16:55:34.328Z,101247.55
2018-04-26T16:58:01.796Z,101243.23
2018-04-26T17:00:29.369Z,101240.77
2018-04-26T17:02:56.815Z,101251.91
2018-04-26T17:05:24.276Z,101252.31
2018-04-26T17:07:51.684Z,101254.73
2018-04-26T17:10:19.148Z,101256.38
2018-04-26T17:12:46.641Z,101259.21
2018-04-26T17:15:14.071Z,101254.88
2018-04-26T17:17:41.473Z,101271.34
2018-04-26T17:20:08.885Z,101278.28
2018-04-26T17:22:36.350Z,101276.67
2018-04-26T17:25:03.714Z,101274.55
2018-04-26T17:27:31.116Z,101274.26
2018-04-26T17:29:58.532Z,101275.57
2018-04-26T17:32:25.941Z,101282.98
2018-04-26T17:34:53.405Z,101281.55
2018-04-26T17:37:20.773Z,101284.84
2018-04-26T17:39:48.202Z,101288.88
2018-04-26T17:42:15.609Z,101289.84
2018-04-26T17:44:43.028Z,101286.84
2018-04-26T17:47:10.447Z,101295.37
2018-04-26T17:49:37.864Z,101293.34
2018-04-26T17:52:05.281Z,101296.75
2018-04-26T17:54:32.688Z,101295.78
2018-04-26T17:57:00.111Z,101300.91
2018-04-26T17:59:27.521Z,101301.81
2018-04-26T18:01:54.939Z,101312.82
2018-04-26T18:04:22.352Z,101317.69
2018-04-26T18:06:49.769Z,101323.22
2018-04-26T18:09:17.177Z,101320.71
2018-04-26T18:11:44.594Z,101323.64
2018-04-26T18:14:11.996Z,101330.56
2018-04-26T18:16:39.420Z,101326.53
2018-04-26T18:19:06.831Z,101335.42
2018-04-26T18:21:34.244Z,101341.07
2018-04-26T18:24:01.663Z,101344.15
2018-04-26T18:26:29.077Z,101349.39
2018-04-26T18:28:56.483Z,101355.89
2018-04-26T18:31:24.788Z,101353.95
2018-04-26T18:33:52.193Z,101354.52
2018-04-26T18:36:19.609Z,101358.59
2018-04-26T18:38:47.017Z,101364.28
2018-04-26T18:41:14.444Z,101369.89
2018-04-26T18:43:41.883Z,101371.45
2018-04-26T18:46:09.285Z,101367.86
2018-04-26T18:48:36.764Z,101373.36
2018-04-26T18:51:04.221Z,101365.38
2018-04-26T18:53:31.588Z,101366.34
2018-04-26T18:55:58.996Z,101369.73
2018-04-26T18:58:26.408Z,101383.15
2018-04-26T19:00:53.821Z,101388.14
2018-04-26T19:03:21.236Z,101385.28
2018-04-26T19:05:48.652Z,101389.30
2018-04-26T19:08:16.131Z,101385.98
2018-04-26T19:10:43.581Z,101388.80
2018-04-26T19:13:11.005Z,101392.52
2018-04-26T19:15:38.494Z,101390.66
2018-04-26T19:18:05.912Z,101388.79
2018-04-26T19:20:33.326Z,101396.45
2018-04-26T19:23:00.742Z,101403.20
2018-04-26T19:25:28.162Z,101401.73
2018-04-26T19:27:55.659Z,101402.88
2018-04-26T19:30:22.993Z,101409.39
2018-04-26T19:32:50.407Z,101402.23
2018-04-26T19:35:17.822Z,101403.88
2018-04-26T19:37:45.240Z,101406.78
2018-04-26T19:40:12.647Z,101405.95
2018-04-26T19:42:40.101Z,101409.45
2018-04-26T19:45:07.508Z,101405.89
2018-04-26T19:47:34.910Z,101409.84
2018-04-26T19:50:02.328Z,101403.22
2018-04-26T19:52:29.729Z,101405.56
2018-04-26T19:54:57.148Z,101407.94
2018-04-26T19:57:24.557Z,101411.74
2018-04-26T19:59:51.972Z,101413.52
2018-04-26T20:02:19.380Z,101409.13
2018-04-26T20:04:46.800Z,101413.81
2018-04-26T20:07:14.210Z,101407.92
2018-04-26T20:09:41.625Z,101406.06
2018-04-26T20:12:09.048Z,101402.30
2018-04-26T20:14:36.473Z,101400.23
2018-04-26T20:17:03.877Z,101401.69
2018-04-26T20:19:31.351Z,101380.67
2018-04-26T20:21:58.808Z,101390.24
2018-04-26T20:24:26.335Z,101390.55
2018-04-26T20:26:53.741Z,101396.61
2018-04-26T20:29:21.167Z,101393.35
2018-04-26T20:31:48.590Z,101398.36
2018-04-26T20:34:16.049Z,101391.98
2018-04-26T20:36:43.475Z,101398.63
2018-04-26T20:39:10.872Z,101401.91
2018-04-26T20:41:55.422Z,101399.53
2018-04-26T20:44:34.844Z,101404.52
2018-04-26T20:47:02.311Z,101404.67
2018-04-26T20:49:29.731Z,101403.08
2018-04-26T20:51:57.144Z,101408.69
2018-04-26T20:54:24.553Z,101402.81
2018-04-26T20:56:51.971Z,101409.21
2018-04-26T20:59:19.381Z,101403.19
2018-04-26T21:01:46.803Z,101399.78
2018-04-26T21:04:14.221Z,101396.75
2018-04-26T21:06:41.633Z,101396.05
2018-04-26T21:09:09.091Z,101397.02
2018-04-26T21:11:36.509Z,101398.28
2018-04-26T21:14:03.920Z,101394.14
2018-04-26T21:16:31.328Z,101390.27
2018-04-26T21:18:58.737Z,101396.29
2018-04-26T21:21:26.157Z,101392.56
2018-04-26T21:23:53.572Z,101393.53
2018-04-26T21:26:20.989Z,101387.51
2018-04-26T21:28:48.400Z,101395.20
2018-04-26T21:31:15.892Z,101399.34
2018-04-26T21:33:43.348Z,101389.91
2018-04-26T21:36:10.808Z,101387.89
2018-04-26T21:38:38.252Z,101393.41
2018-04-26T21:41:05.708Z,101392.99
2018-04-26T21:43:33.112Z,101395.61
2018-04-26T21:46:00.541Z,101388.85
2018-04-26T21:48:27.941Z,101394.84
2018-04-26T21:51:01.094Z,101400.03
2018-04-26T21:53:34.147Z,101397.73
2018-04-26T21:56:07.113Z,101403.22
2018-04-26T21:58:40.108Z,101401.08
2018-04-26T22:01:13.345Z,101403.94
2018-04-26T22:03:41.705Z,101407.89
2018-04-26T22:06:09.147Z,101406.70
2018-04-26T22:08:36.569Z,101407.30
2018-04-26T22:11:03.968Z,101407.00
2018-04-26T22:13:31.408Z,101404.41
2018-04-26T22:15:58.814Z,101410.48
2018-04-26T22:18:26.316Z,101407.73
2018-04-26T22:20:53.789Z,101409.93
2018-04-26T22:23:21.244Z,101416.97
2018-04-26T22:25:48.657Z,101415.35
2018-04-26T22:28:16.068Z,101420.41
2018-04-26T22:30:43.499Z,101415.36
2018-04-26T22:33:10.915Z,101416.78
2018-04-26T22:35:38.317Z,101421.19
2018-04-26T22:38:05.724Z,101425.16
2018-04-26T22:40:33.216Z,101423.53
2018-04-26T22:43:00.674Z,101422.48
2018-04-26T22:45:28.072Z,101425.38
2018-04-26T22:47:55.496Z,101421.56
2018-04-26T22:50:22.900Z,101419.45
2018-04-26T22:52:50.316Z,101411.91
2018-04-26T22:55:17.734Z,101413.23
2018-04-26T22:57:45.200Z,101412.31
2018-04-26T23:00:12.613Z,101412.78
2018-04-26T23:02:40.022Z,101412.22
2018-04-26T23:05:07.433Z,101408.04
2018-04-26T23:07:34.941Z,101404.27
2018-04-26T23:10:02.358Z,101403.27
2018-04-26T23:12:29.768Z,101404.27
2018-04-26T23:14:57.282Z,101402.21
2018-04-26T23:17:24.841Z,101398.70
2018-04-26T23:19:52.244Z,101405.42
2018-04-26T23:22:19.648Z,101401.88
2018-04-26T23:24:47.074Z,101399.17
2018-04-26T23:27:14.469Z,101398.02
2018-04-26T23:29:41.881Z,101397.79
2018-04-26T23:32:09.289Z,101395.86
2018-04-26T23:34:36.697Z,101400.27
2018-04-26T23:37:04.180Z,101395.91
2018-04-26T23:39:31.601Z,101392.78
2018-04-26T23:41:59.089Z,101394.94
2018-04-26T23:44:26.500Z,101393.48
2018-04-26T23:46:53.904Z,101391.31
2018-04-26T23:49:21.325Z,101390.07
2018-04-26T23:51:48.728Z,101387.88
2018-04-26T23:54:16.136Z,101392.32
2018-04-26T23:56:43.542Z,101386.66
2018-04-26T23:59:10.961Z,101386.30
